createdAt,value
2019-02-22T00:00:30.375Z,96.41
2019-02-22T00:01:30.846Z,96.33
2019-02-22T00:02:31.318Z,96.38
2019-02-22T00:03:31.791Z,96.41
2019-02-22T00:04:32.261Z,96.41
2019-02-22T00:05:32.735Z,96.37
2019-02-22T00:06:33.206Z,96.41
2019-02-22T00:07:33.677Z,96.38
2019-02-22T00:08:34.200Z,96.37
2019-02-22T00:10:35.302Z,96.38
2019-02-22T00:11:35.565Z,96.34
2019-02-22T00:12:36.038Z,96.37
2019-02-22T00:13:36.714Z,96.40
2019-02-22T00:14:37.385Z,96.38
2019-02-22T00:15:37.459Z,96.37
2019-02-22T00:16:37.925Z,96.37
2019-02-22T00:17:38.402Z,96.33
2019-02-22T00:18:38.868Z,96.41
2019-02-22T00:19:39.542Z,96.36
2019-02-22T00:20:41.281Z,96.33
2019-02-22T00:21:40.284Z,96.39
2019-02-22T00:22:41.097Z,96.34
2019-02-22T00:23:41.229Z,96.39
2019-02-22T00:24:41.903Z,96.36
2019-02-22T00:25:42.175Z,96.36
2019-02-22T00:26:42.846Z,96.36
2019-02-22T00:27:43.116Z,96.36
2019-02-22T00:28:43.891Z,96.36
2019-02-22T00:29:44.061Z,96.32
2019-02-22T00:30:44.532Z,96.35
2019-02-22T00:31:45.008Z,96.32
2019-02-22T00:32:45.476Z,96.32
2019-02-22T00:33:45.947Z,96.35
2019-02-22T00:34:46.627Z,96.36
2019-02-22T00:35:46.935Z,96.36
2019-02-22T00:36:47.429Z,96.36
2019-02-22T00:37:47.836Z,96.35
2019-02-22T00:38:48.512Z,96.35
2019-02-22T00:39:48.779Z,96.38
2019-02-22T00:40:49.453Z,96.35
2019-02-22T00:41:49.725Z,96.35
2019-02-22T00:42:50.481Z,96.33
2019-02-22T00:43:50.669Z,96.31
2019-02-22T00:44:51.145Z,96.35
2019-02-22T00:45:51.613Z,96.32
2019-02-22T00:46:52.085Z,96.35
2019-02-22T00:47:52.558Z,96.34
2019-02-22T00:48:53.028Z,96.35
2019-02-22T00:49:53.501Z,96.35
2019-02-22T00:50:53.973Z,96.35
2019-02-22T00:51:54.785Z,96.35
2019-02-22T00:53:55.389Z,96.33
2019-02-22T00:54:55.863Z,96.34
2019-02-22T00:55:56.339Z,96.34
2019-02-22T00:56:56.805Z,96.35
2019-02-22T00:57:57.280Z,96.32
2019-02-22T00:58:57.747Z,96.35
2019-02-22T00:59:58.220Z,96.33
2019-02-22T01:00:58.694Z,96.33
2019-02-22T01:01:59.166Z,96.33
2019-02-22T01:02:59.640Z,96.30
2019-02-22T01:04:00.113Z,96.31
2019-02-22T01:05:00.585Z,96.33
2019-02-22T01:06:01.055Z,96.32
2019-02-22T01:07:01.530Z,96.32
2019-02-22T01:08:02.001Z,96.33
2019-02-22T01:09:02.484Z,96.32
2019-02-22T01:11:03.416Z,96.32
2019-02-22T01:12:03.889Z,96.28
2019-02-22T01:13:04.360Z,96.32
2019-02-22T01:14:04.882Z,96.32
2019-02-22T01:15:05.303Z,96.29
2019-02-22T01:16:05.777Z,96.32
2019-02-22T01:17:06.251Z,96.28
2019-02-22T01:18:06.721Z,96.29
2019-02-22T01:19:07.192Z,96.32
2019-02-22T01:20:07.668Z,96.32
2019-02-22T01:21:09.333Z,96.28
2019-02-22T01:22:08.824Z,96.32
2019-02-22T01:23:09.082Z,96.27
2019-02-22T01:24:09.606Z,96.31
2019-02-22T01:28:11.444Z,96.27
2019-02-22T01:29:11.916Z,96.32
2019-02-22T01:30:12.590Z,96.28
2019-02-22T01:31:12.862Z,96.31
2019-02-22T01:32:13.533Z,96.29
2019-02-22T01:33:14.347Z,96.33
2019-02-22T01:34:14.277Z,96.32
2019-02-22T01:35:14.747Z,96.28
2019-02-22T01:36:15.222Z,96.31
2019-02-22T01:37:15.897Z,96.29
2019-02-22T01:38:16.377Z,96.29
2019-02-22T01:39:16.639Z,96.31
2019-02-22T01:40:17.315Z,96.30
2019-02-22T01:41:17.581Z,96.31
2019-02-22T01:42:18.057Z,96.27
2019-02-22T01:43:18.525Z,96.27
2019-02-22T01:44:19.250Z,96.31
2019-02-22T01:45:19.469Z,96.31
2019-02-22T01:46:19.943Z,96.29
2019-02-22T01:47:20.421Z,96.26
2019-02-22T01:48:21.088Z,96.30
2019-02-22T01:49:21.359Z,96.28
2019-02-22T01:50:21.846Z,96.27
2019-02-22T01:51:22.308Z,96.31
2019-02-22T01:52:22.775Z,96.31
2019-02-22T01:53:23.249Z,96.31
2019-02-22T01:54:23.924Z,96.27
2019-02-22T01:55:24.195Z,96.26
2019-02-22T01:56:24.866Z,96.28
2019-02-22T01:57:25.137Z,96.26
2019-02-22T01:58:25.613Z,96.31
2019-02-22T01:59:26.488Z,96.30
2019-02-22T02:00:26.555Z,96.30
2019-02-22T02:01:27.027Z,96.31
2019-02-22T02:02:27.499Z,96.27
2019-02-22T02:03:27.970Z,96.27
2019-02-22T02:04:28.442Z,96.27
2019-02-22T02:05:29.118Z,96.31
2019-02-22T02:06:29.386Z,96.27
2019-02-22T02:07:29.857Z,96.30
2019-02-22T02:08:30.330Z,96.30
2019-02-22T02:09:30.805Z,96.27
2019-02-22T02:10:31.274Z,96.30
2019-02-22T02:12:32.439Z,96.30
2019-02-22T02:13:33.097Z,96.30
2019-02-22T02:14:33.365Z,96.31
2019-02-22T02:15:33.634Z,96.31
2019-02-22T02:16:34.108Z,96.27
2019-02-22T02:17:34.581Z,96.31
2019-02-22T02:18:35.059Z,96.27
2019-02-22T02:19:35.928Z,96.27
2019-02-22T02:20:35.996Z,96.31
2019-02-22T02:22:37.146Z,96.27
2019-02-22T02:23:37.617Z,96.29
2019-02-22T02:24:37.939Z,96.29
2019-02-22T02:25:38.760Z,96.31
2019-02-22T02:26:38.829Z,96.29
2019-02-22T02:27:39.503Z,96.29
2019-02-22T02:28:39.773Z,96.31
2019-02-22T02:29:40.498Z,96.27
2019-02-22T02:30:40.921Z,96.29
2019-02-22T02:31:41.189Z,96.28
2019-02-22T02:32:42.001Z,96.31
2019-02-22T02:33:42.343Z,96.31
2019-02-22T02:34:43.014Z,96.27
2019-02-22T02:36:43.553Z,96.31
2019-02-22T02:37:44.025Z,96.27
2019-02-22T02:38:44.500Z,96.28
2019-02-22T02:39:45.713Z,96.29
2019-02-22T02:40:45.642Z,96.27
2019-02-22T02:41:46.112Z,96.31
2019-02-22T02:43:46.856Z,96.27
2019-02-22T02:44:47.578Z,96.31
2019-02-22T02:45:47.799Z,96.31
2019-02-22T02:46:48.477Z,96.35
2019-02-22T02:47:48.743Z,96.31
2019-02-22T02:48:49.213Z,96.32
2019-02-22T02:50:50.362Z,96.31
2019-02-22T02:51:50.631Z,96.28
2019-02-22T02:52:51.101Z,96.32
2019-02-22T02:53:51.577Z,96.31
2019-02-22T02:54:52.045Z,96.32
2019-02-22T02:55:52.723Z,96.35
2019-02-22T02:56:53.033Z,96.30
2019-02-22T02:57:53.463Z,96.30
2019-02-22T02:58:53.935Z,96.32
2019-02-22T02:59:54.460Z,96.31
2019-02-22T03:00:54.883Z,96.30
2019-02-22T03:01:55.352Z,96.32
2019-02-22T03:02:55.829Z,96.32
2019-02-22T03:03:56.296Z,96.31
2019-02-22T03:04:56.767Z,96.28
2019-02-22T03:05:57.787Z,96.32
2019-02-22T03:06:57.913Z,96.32
2019-02-22T03:07:59.376Z,96.30
2019-02-22T03:08:58.655Z,96.32
2019-02-22T03:09:59.127Z,96.30
2019-02-22T03:10:59.601Z,96.33
2019-02-22T03:12:00.072Z,96.28
2019-02-22T03:13:00.545Z,96.30
2019-02-22T03:14:01.559Z,96.32
2019-02-22T03:15:01.702Z,96.32
2019-02-22T03:16:02.161Z,96.28
2019-02-22T03:18:02.914Z,96.32
2019-02-22T03:19:03.779Z,96.30
2019-02-22T03:20:04.187Z,96.26
2019-02-22T03:21:04.323Z,96.32
2019-02-22T03:22:04.792Z,96.32
2019-02-22T03:23:05.265Z,96.32
2019-02-22T03:24:05.735Z,96.30
2019-02-22T03:25:06.207Z,96.32
2019-02-22T03:26:06.680Z,96.29
2019-02-22T03:27:07.151Z,96.27
2019-02-22T03:28:07.622Z,96.32
2019-02-22T03:29:08.097Z,96.32
2019-02-22T03:30:08.569Z,96.28
2019-02-22T03:31:09.099Z,96.28
2019-02-22T03:32:09.521Z,96.32
2019-02-22T03:33:09.993Z,96.29
2019-02-22T03:34:10.457Z,96.32
2019-02-22T03:35:10.939Z,96.30
2019-02-22T03:36:11.400Z,96.32
2019-02-22T03:37:11.874Z,96.30
2019-02-22T03:38:12.345Z,96.32
2019-02-22T03:39:13.045Z,96.32
2019-02-22T03:40:13.338Z,96.29
2019-02-22T03:41:13.972Z,96.29
2019-02-22T03:42:14.435Z,96.32
2019-02-22T03:44:15.178Z,96.32
2019-02-22T03:45:15.649Z,96.32
2019-02-22T03:46:16.122Z,96.30
2019-02-22T03:47:16.592Z,96.33
2019-02-22T03:48:17.063Z,96.32
2019-02-22T03:49:17.536Z,96.31
2019-02-22T03:50:18.213Z,96.31
2019-02-22T03:51:18.482Z,96.33
2019-02-22T03:52:18.951Z,96.30
2019-02-22T03:53:19.424Z,96.33
2019-02-22T03:54:19.898Z,96.30
2019-02-22T03:55:20.622Z,96.29
2019-02-22T03:57:21.315Z,96.38
2019-02-22T03:58:21.784Z,96.34
2019-02-22T03:59:22.460Z,96.30
2019-02-22T04:00:22.881Z,96.33
2019-02-22T04:01:23.201Z,96.30
2019-02-22T04:02:23.791Z,96.30
2019-02-22T04:03:24.154Z,96.31
2019-02-22T04:04:24.617Z,96.32
2019-02-22T04:05:25.442Z,96.30
2019-02-22T04:06:25.763Z,96.32
2019-02-22T04:07:26.236Z,96.34
2019-02-22T04:08:28.311Z,96.32
2019-02-22T04:09:26.977Z,96.35
2019-02-22T04:10:27.450Z,96.32
2019-02-22T04:12:28.395Z,96.32
2019-02-22T04:13:28.868Z,96.33
2019-02-22T04:14:29.542Z,96.35
2019-02-22T04:15:29.812Z,96.32
2019-02-22T04:16:30.282Z,96.33
2019-02-22T04:17:31.160Z,96.32
2019-02-22T04:18:31.225Z,96.36
2019-02-22T04:19:31.698Z,96.34
2019-02-22T04:20:32.374Z,96.36
2019-02-22T04:22:33.322Z,96.33
2019-02-22T04:24:34.060Z,96.37
2019-02-22T04:25:34.533Z,96.36
2019-02-22T04:26:35.610Z,96.33
2019-02-22T04:27:35.475Z,96.33
2019-02-22T04:28:36.350Z,96.33
2019-02-22T04:29:36.623Z,96.34
2019-02-22T04:30:37.962Z,96.39
2019-02-22T04:31:37.374Z,96.34
2019-02-22T04:32:37.835Z,96.35
2019-02-22T04:33:38.315Z,96.37
2019-02-22T04:34:38.786Z,96.36
2019-02-22T04:35:39.256Z,96.35
2019-02-22T04:36:39.728Z,96.38
2019-02-22T04:37:40.195Z,96.34
2019-02-22T04:38:40.667Z,96.37
2019-02-22T04:39:41.344Z,96.36
2019-02-22T04:40:41.611Z,96.32
2019-02-22T04:41:42.082Z,96.33
2019-02-22T04:42:42.556Z,96.36
2019-02-22T04:43:43.031Z,96.40
2019-02-22T04:44:43.499Z,96.40
2019-02-22T04:45:43.979Z,96.40
2019-02-22T04:46:44.686Z,96.36
2019-02-22T04:47:45.119Z,96.37
2019-02-22T04:48:45.389Z,96.41
2019-02-22T04:49:45.864Z,96.41
2019-02-22T04:50:46.332Z,96.38
2019-02-22T04:51:46.807Z,96.38
2019-02-22T04:52:47.276Z,96.43
2019-02-22T04:53:47.748Z,96.42
2019-02-22T04:54:48.229Z,96.42
2019-02-22T04:55:48.695Z,96.43
2019-02-22T04:56:49.170Z,96.39
2019-02-22T04:57:49.638Z,96.39
2019-02-22T04:58:50.109Z,96.43
2019-02-22T04:59:50.581Z,96.40
2019-02-22T05:00:51.256Z,96.42
2019-02-22T05:01:51.526Z,96.36
2019-02-22T05:03:52.673Z,96.44
2019-02-22T05:04:52.942Z,96.38
2019-02-22T05:05:53.414Z,96.37
2019-02-22T05:07:54.359Z,96.43
2019-02-22T05:08:54.832Z,96.42
2019-02-22T05:09:55.304Z,96.42
2019-02-22T05:10:55.775Z,96.42
2019-02-22T05:11:56.263Z,96.48
2019-02-22T05:12:56.921Z,96.42
2019-02-22T05:13:57.595Z,96.42
2019-02-22T05:14:57.667Z,96.39
2019-02-22T05:15:58.137Z,96.43
2019-02-22T05:16:58.621Z,96.45
2019-02-22T05:17:59.082Z,96.45
2019-02-22T05:18:59.553Z,96.40
2019-02-22T05:20:00.025Z,96.48
2019-02-22T05:21:00.499Z,96.44
2019-02-22T05:22:00.972Z,96.40
2019-02-22T05:23:04.361Z,96.43
2019-02-22T05:24:01.914Z,96.45
2019-02-22T05:25:02.386Z,96.45
2019-02-22T05:26:02.914Z,96.46
2019-02-22T05:27:03.344Z,96.46
2019-02-22T05:28:04.145Z,96.42
2019-02-22T05:29:04.275Z,96.49
2019-02-22T05:30:04.747Z,96.46
2019-02-22T05:31:05.221Z,96.46
2019-02-22T05:32:05.694Z,96.46
2019-02-22T05:33:06.163Z,96.47
2019-02-22T05:34:06.655Z,96.46
2019-02-22T05:35:07.111Z,96.49
2019-02-22T05:36:07.590Z,96.51
2019-02-22T05:37:08.059Z,96.44
2019-02-22T05:38:08.525Z,96.45
2019-02-22T05:39:18.555Z,96.52
2019-02-22T05:40:09.472Z,96.57
2019-02-22T05:41:09.946Z,96.52
2019-02-22T05:42:22.275Z,96.45
2019-02-22T05:44:11.365Z,96.49
2019-02-22T05:45:11.830Z,96.49
2019-02-22T05:46:12.305Z,96.46
2019-02-22T05:47:12.776Z,96.54
2019-02-22T05:48:13.255Z,96.50
2019-02-22T05:49:13.719Z,96.49
2019-02-22T05:50:14.193Z,96.54
2019-02-22T05:51:14.666Z,96.52
2019-02-22T05:52:15.140Z,96.51
2019-02-22T05:53:15.609Z,96.53
2019-02-22T05:54:16.083Z,96.51
2019-02-22T05:55:16.558Z,96.54
2019-02-22T05:56:17.025Z,96.51
2019-02-22T05:57:17.501Z,96.51
2019-02-22T05:58:17.972Z,96.54
2019-02-22T05:59:18.442Z,96.52
2019-02-22T06:00:18.916Z,96.52
2019-02-22T06:01:19.393Z,96.52
2019-02-22T06:02:19.864Z,96.52
2019-02-22T06:03:20.330Z,96.49
2019-02-22T06:04:20.806Z,96.54
2019-02-22T06:05:21.275Z,96.56
2019-02-22T06:06:21.755Z,96.50
2019-02-22T06:07:22.423Z,96.54
2019-02-22T06:08:22.699Z,96.50
2019-02-22T06:09:23.164Z,96.58
2019-02-22T06:10:23.637Z,96.53
2019-02-22T06:11:24.112Z,96.50
2019-02-22T06:12:34.178Z,96.58
2019-02-22T06:13:25.052Z,96.57
2019-02-22T06:14:25.548Z,96.54
2019-02-22T06:15:25.998Z,96.58
2019-02-22T06:16:26.519Z,96.55
2019-02-22T06:17:26.940Z,96.54
2019-02-22T06:18:27.414Z,96.60
2019-02-22T06:19:27.895Z,96.55
2019-02-22T06:20:28.357Z,96.53
2019-02-22T06:21:28.867Z,96.58
2019-02-22T06:22:30.080Z,96.57
2019-02-22T06:23:29.776Z,96.56
2019-02-22T06:24:30.593Z,96.56
2019-02-22T06:25:30.757Z,96.55
2019-02-22T06:26:31.196Z,96.59
2019-02-22T06:27:31.661Z,96.60
2019-02-22T06:28:32.174Z,96.63
2019-02-22T06:29:32.614Z,96.56
2019-02-22T06:30:33.078Z,96.57
2019-02-22T06:31:33.552Z,96.57
2019-02-22T06:32:34.023Z,96.60
2019-02-22T06:34:34.967Z,96.61
2019-02-22T06:35:35.642Z,96.59
2019-02-22T06:36:35.912Z,96.61
2019-02-22T06:37:36.588Z,96.60
2019-02-22T06:38:37.057Z,96.61
2019-02-22T06:40:38.048Z,96.61
2019-02-22T06:41:38.614Z,96.58
2019-02-22T06:42:45.765Z,96.62
2019-02-22T06:44:39.712Z,96.62
2019-02-22T06:47:41.311Z,96.63
2019-02-22T06:48:41.577Z,96.62
2019-02-22T06:49:44.447Z,96.62
2019-02-22T06:50:42.526Z,96.61
2019-02-22T06:51:42.993Z,96.63
2019-02-22T06:53:44.138Z,96.63
2019-02-22T06:54:44.407Z,96.67
2019-02-22T06:57:46.442Z,96.63
2019-02-22T06:59:50.206Z,96.64
2019-02-22T07:00:48.081Z,96.64
2019-02-22T07:03:48.861Z,96.64
2019-02-22T07:04:49.129Z,96.68
2019-02-22T07:05:49.802Z,96.64
2019-02-22T07:06:50.075Z,96.65
2019-02-22T07:07:50.544Z,96.65
2019-02-22T07:08:51.017Z,96.65
2019-02-22T07:09:51.486Z,96.68
2019-02-22T07:10:51.962Z,96.65
2019-02-22T07:11:52.434Z,96.68
2019-02-22T07:12:57.022Z,96.69
2019-02-22T07:13:53.374Z,96.65
2019-02-22T07:14:53.847Z,96.67
2019-02-22T07:15:54.322Z,96.69
2019-02-22T07:16:54.799Z,96.69
2019-02-22T07:17:55.264Z,96.67
2019-02-22T07:18:55.735Z,96.67
2019-02-22T07:19:56.206Z,96.65
2019-02-22T07:20:56.682Z,96.66
2019-02-22T07:21:57.151Z,96.66
2019-02-22T07:22:57.623Z,96.70
2019-02-22T07:23:58.093Z,96.70
2019-02-22T07:24:58.571Z,96.68
2019-02-22T07:25:59.042Z,96.70
2019-02-22T07:26:59.511Z,96.70
2019-02-22T07:27:59.987Z,96.70
2019-02-22T07:29:00.459Z,96.70
2019-02-22T07:30:00.927Z,96.68
2019-02-22T07:31:01.400Z,96.70
2019-02-22T07:32:05.802Z,96.71
2019-02-22T07:33:02.347Z,96.70
2019-02-22T07:34:02.815Z,96.71
2019-02-22T07:35:03.288Z,96.70
2019-02-22T07:36:03.759Z,96.70
2019-02-22T07:37:04.233Z,96.71
2019-02-22T07:38:04.703Z,96.71
2019-02-22T07:39:05.175Z,96.71
2019-02-22T07:40:05.648Z,96.71
2019-02-22T07:41:06.119Z,96.71
2019-02-22T07:42:06.590Z,96.71
2019-02-22T07:43:08.280Z,96.71
2019-02-22T07:44:07.537Z,96.73
2019-02-22T07:45:08.008Z,96.73
2019-02-22T07:46:08.479Z,96.71
2019-02-22T07:47:08.953Z,96.71
2019-02-22T07:48:09.422Z,96.74
2019-02-22T07:49:09.893Z,96.75
2019-02-22T07:50:10.716Z,96.71
2019-02-22T07:51:10.840Z,96.72
2019-02-22T07:52:11.715Z,96.72
2019-02-22T07:53:11.783Z,96.72
2019-02-22T07:54:12.252Z,96.72
2019-02-22T07:55:12.729Z,96.72
2019-02-22T07:56:13.539Z,96.76
2019-02-22T07:57:13.672Z,96.72
2019-02-22T07:58:14.143Z,96.76
2019-02-22T07:59:14.614Z,96.72
2019-02-22T08:00:15.085Z,96.76
2019-02-22T08:01:15.558Z,96.76
2019-02-22T08:02:16.231Z,96.77
2019-02-22T08:04:16.975Z,96.76
2019-02-22T08:05:17.686Z,96.77
2019-02-22T08:06:18.123Z,96.74
2019-02-22T08:07:18.391Z,96.73
2019-02-22T08:08:18.910Z,96.76
2019-02-22T08:09:19.369Z,96.75
2019-02-22T08:10:20.008Z,96.77
2019-02-22T08:11:20.277Z,96.77
2019-02-22T08:12:20.952Z,96.77
2019-02-22T08:13:21.224Z,96.77
2019-02-22T08:14:21.696Z,96.77
2019-02-22T08:15:22.166Z,96.77
2019-02-22T08:16:22.637Z,96.77
2019-02-22T08:17:23.132Z,96.77
2019-02-22T08:18:23.585Z,96.76
2019-02-22T08:19:24.052Z,96.77
2019-02-22T08:21:25.000Z,96.78
2019-02-22T08:22:25.467Z,96.78
2019-02-22T08:23:25.941Z,96.78
2019-02-22T08:24:26.412Z,96.78
2019-02-22T08:25:26.886Z,96.78
2019-02-22T08:26:27.356Z,96.78
2019-02-22T08:27:27.830Z,96.79
2019-02-22T08:28:28.302Z,96.78
2019-02-22T08:29:28.772Z,96.79
2019-02-22T08:30:29.243Z,96.79
2019-02-22T08:31:29.715Z,96.79
2019-02-22T08:32:30.188Z,96.82
2019-02-22T08:33:30.659Z,96.79
2019-02-22T08:34:31.133Z,96.79
2019-02-22T08:35:31.604Z,96.79
2019-02-22T08:36:32.075Z,96.79
2019-02-22T08:37:32.554Z,96.79
2019-02-22T08:38:33.045Z,96.79
2019-02-22T08:39:33.490Z,96.79
2019-02-22T08:40:33.967Z,96.80
2019-02-22T08:41:34.435Z,96.83
2019-02-22T08:42:34.909Z,96.80
2019-02-22T08:43:35.581Z,96.83
2019-02-22T08:44:35.850Z,96.80
2019-02-22T08:45:36.322Z,96.80
2019-02-22T08:46:37.138Z,96.80
2019-02-22T08:47:37.267Z,96.81
2019-02-22T08:48:37.741Z,96.80
2019-02-22T08:49:38.214Z,96.84
2019-02-22T08:50:38.690Z,96.84
2019-02-22T08:51:39.494Z,96.84
2019-02-22T08:52:39.626Z,96.81
2019-02-22T08:53:40.148Z,96.84
2019-02-22T08:55:41.044Z,96.85
2019-02-22T08:56:41.513Z,96.85
2019-02-22T08:57:41.985Z,96.85
2019-02-22T08:58:42.457Z,96.81
2019-02-22T08:59:42.937Z,96.82
2019-02-22T09:00:43.403Z,96.81
2019-02-22T09:01:43.873Z,96.85
2019-02-22T09:02:44.344Z,96.85
2019-02-22T09:03:50.228Z,96.86
2019-02-22T09:04:45.325Z,96.82
2019-02-22T09:05:45.762Z,96.83
2019-02-22T09:06:46.233Z,96.82
2019-02-22T09:07:46.705Z,96.84
2019-02-22T09:08:47.227Z,96.86
2019-02-22T09:09:47.650Z,96.83
2019-02-22T09:10:59.674Z,96.86
2019-02-22T09:11:48.593Z,96.86
2019-02-22T09:12:49.065Z,96.86
2019-02-22T09:13:49.536Z,96.86
2019-02-22T09:14:50.008Z,96.86
2019-02-22T09:15:50.481Z,96.86
2019-02-22T09:16:50.957Z,96.87
2019-02-22T09:17:51.422Z,96.86
2019-02-22T09:18:51.895Z,96.86
2019-02-22T09:19:52.365Z,96.85
2019-02-22T09:20:52.838Z,96.83
2019-02-22T09:21:53.314Z,96.87
2019-02-22T09:22:53.786Z,96.86
2019-02-22T09:23:54.406Z,96.87
2019-02-22T09:24:54.725Z,96.87
2019-02-22T09:25:55.200Z,96.87
2019-02-22T09:26:55.668Z,96.87
2019-02-22T09:27:56.140Z,96.87
2019-02-22T09:28:56.612Z,96.87
2019-02-22T09:29:59.120Z,96.87
2019-02-22T09:30:57.557Z,96.89
2019-02-22T09:31:58.028Z,96.88
2019-02-22T09:32:58.501Z,96.91
2019-02-22T09:33:58.974Z,96.87
2019-02-22T09:34:59.446Z,96.87
2019-02-22T09:35:59.916Z,96.87
2019-02-22T09:37:00.392Z,96.87
2019-02-22T09:38:00.861Z,96.88
2019-02-22T09:39:01.333Z,96.88
2019-02-22T09:40:01.803Z,96.88
2019-02-22T09:41:02.275Z,96.88
2019-02-22T09:42:02.747Z,96.88
2019-02-22T09:43:03.328Z,96.88
2019-02-22T09:44:03.730Z,96.88
2019-02-22T09:45:04.164Z,96.90
2019-02-22T09:46:04.976Z,96.88
2019-02-22T09:47:05.107Z,96.88
2019-02-22T09:48:05.581Z,96.89
2019-02-22T09:49:06.051Z,96.88
2019-02-22T09:50:06.553Z,96.89
2019-02-22T09:51:06.993Z,96.88
2019-02-22T09:52:07.465Z,96.89
2019-02-22T09:53:07.976Z,96.89
2019-02-22T09:54:08.413Z,96.89
2019-02-22T09:55:08.935Z,96.89
2019-02-22T09:56:09.354Z,96.89
2019-02-22T09:57:09.829Z,96.89
2019-02-22T09:58:10.297Z,96.89
2019-02-22T09:59:10.819Z,96.89
2019-02-22T10:00:11.241Z,96.91
2019-02-22T10:01:11.714Z,96.93
2019-02-22T10:02:12.387Z,96.90
2019-02-22T10:03:12.658Z,96.94
2019-02-22T10:04:13.137Z,96.90
2019-02-22T10:05:13.604Z,96.90
2019-02-22T10:06:14.099Z,96.90
2019-02-22T10:07:14.546Z,96.94
2019-02-22T10:08:15.016Z,96.91
2019-02-22T10:09:15.490Z,96.91
2019-02-22T10:10:15.962Z,96.91
2019-02-22T10:11:16.464Z,96.90
2019-02-22T10:12:16.904Z,96.91
2019-02-22T10:13:17.377Z,96.91
2019-02-22T10:14:17.847Z,96.91
2019-02-22T10:15:18.320Z,96.93
2019-02-22T10:16:18.792Z,96.91
2019-02-22T10:17:19.267Z,96.91
2019-02-22T10:18:19.735Z,96.95
2019-02-22T10:19:20.206Z,96.92
2019-02-22T10:20:20.679Z,96.93
2019-02-22T10:21:21.151Z,96.91
2019-02-22T10:22:21.624Z,96.91
2019-02-22T10:23:22.098Z,96.92
2019-02-22T10:24:22.618Z,96.92
2019-02-22T10:25:23.042Z,96.96
2019-02-22T10:26:23.514Z,96.96
2019-02-22T10:27:23.989Z,96.94
2019-02-22T10:28:24.457Z,96.92
2019-02-22T10:29:24.926Z,96.92
2019-02-22T10:30:25.398Z,96.95
2019-02-22T10:31:25.870Z,96.94
2019-02-22T10:32:26.343Z,96.93
2019-02-22T10:33:36.387Z,96.94
2019-02-22T10:34:27.286Z,96.97
2019-02-22T10:35:27.758Z,96.93
2019-02-22T10:36:28.239Z,96.95
2019-02-22T10:37:28.705Z,96.97
2019-02-22T10:38:29.174Z,96.94
2019-02-22T10:39:29.646Z,96.94
2019-02-22T10:40:30.118Z,96.97
2019-02-22T10:41:30.683Z,96.97
2019-02-22T10:42:31.061Z,96.94
2019-02-22T10:43:31.535Z,96.98
2019-02-22T10:44:32.008Z,96.94
2019-02-22T10:45:32.476Z,96.94
2019-02-22T10:46:32.954Z,96.98
2019-02-22T10:47:33.421Z,96.94
2019-02-22T10:48:33.896Z,96.95
2019-02-22T10:49:34.370Z,96.98
2019-02-22T10:50:34.839Z,96.97
2019-02-22T10:51:35.310Z,96.99
2019-02-22T10:52:35.782Z,96.98
2019-02-22T10:53:36.254Z,96.97
2019-02-22T10:54:36.741Z,96.99
2019-02-22T10:55:37.200Z,96.99
2019-02-22T10:56:39.223Z,96.99
2019-02-22T10:57:38.144Z,96.96
2019-02-22T10:58:38.615Z,96.97
2019-02-22T10:59:39.136Z,96.97
2019-02-22T11:00:39.559Z,96.99
2019-02-22T11:01:40.031Z,96.96
2019-02-22T11:02:40.504Z,96.96
2019-02-22T11:03:40.976Z,96.98
2019-02-22T11:04:41.447Z,97.00
2019-02-22T11:05:41.920Z,97.00
2019-02-22T11:06:42.433Z,96.97
2019-02-22T11:07:42.863Z,97.00
2019-02-22T11:08:43.336Z,97.00
2019-02-22T11:09:44.150Z,97.00
2019-02-22T11:10:44.283Z,96.97
2019-02-22T11:11:44.754Z,97.01
2019-02-22T11:12:45.223Z,97.00
2019-02-22T11:13:46.037Z,97.00
2019-02-22T11:14:46.218Z,97.01
2019-02-22T11:15:46.646Z,97.01
2019-02-22T11:16:47.115Z,96.97
2019-02-22T11:17:47.586Z,97.01
2019-02-22T11:18:48.061Z,97.01
2019-02-22T11:19:48.528Z,97.00
2019-02-22T11:20:48.999Z,97.01
2019-02-22T11:21:49.473Z,96.97
2019-02-22T11:22:49.944Z,97.01
2019-02-22T11:23:50.415Z,96.97
2019-02-22T11:24:50.891Z,97.02
2019-02-22T11:25:51.361Z,97.01
2019-02-22T11:26:51.834Z,97.01
2019-02-22T11:27:52.305Z,97.02
2019-02-22T11:28:52.776Z,97.02
2019-02-22T11:29:53.248Z,97.02
2019-02-22T11:30:53.731Z,97.02
2019-02-22T11:31:54.193Z,97.02
2019-02-22T11:32:54.664Z,97.02
2019-02-22T11:33:55.174Z,97.01
2019-02-22T11:34:55.609Z,97.02
2019-02-22T11:35:56.081Z,97.02
2019-02-22T11:36:56.561Z,97.02
2019-02-22T11:37:57.025Z,97.03
2019-02-22T11:38:57.498Z,97.02
2019-02-22T11:39:57.969Z,97.03
2019-02-22T11:40:58.441Z,97.02
2019-02-22T11:41:58.921Z,97.06
2019-02-22T11:42:59.386Z,97.02
2019-02-22T11:43:59.858Z,97.03
2019-02-22T11:45:00.384Z,97.03
2019-02-22T11:46:00.801Z,97.03
2019-02-22T11:47:01.275Z,97.03
2019-02-22T11:48:09.165Z,97.02
2019-02-22T11:49:02.218Z,97.03
2019-02-22T11:50:02.690Z,97.03
2019-02-22T11:51:03.163Z,97.02
2019-02-22T11:52:03.670Z,97.03
2019-02-22T11:53:04.110Z,97.03
2019-02-22T11:54:04.579Z,97.03
2019-02-22T11:55:05.051Z,97.07
2019-02-22T11:56:05.522Z,97.03
2019-02-22T11:57:05.998Z,97.03
2019-02-22T11:58:06.467Z,97.03
2019-02-22T11:59:06.940Z,97.07
2019-02-22T12:00:07.422Z,97.05
2019-02-22T12:01:07.886Z,97.03
2019-02-22T12:02:08.357Z,97.03
2019-02-22T12:03:21.169Z,97.05
2019-02-22T12:04:09.302Z,97.07
2019-02-22T12:05:09.772Z,97.03
2019-02-22T12:06:10.245Z,97.07
2019-02-22T12:07:10.729Z,97.07
2019-02-22T12:08:11.189Z,97.06
2019-02-22T12:09:11.660Z,97.08
2019-02-22T12:10:12.136Z,97.04
2019-02-22T12:11:12.608Z,97.08
2019-02-22T12:12:13.076Z,97.08
2019-02-22T12:13:13.556Z,97.04
2019-02-22T12:14:14.056Z,97.08
2019-02-22T12:15:14.492Z,97.08
2019-02-22T12:16:14.965Z,97.08
2019-02-22T12:17:15.443Z,97.08
2019-02-22T12:18:15.951Z,97.09
2019-02-22T12:19:16.388Z,97.09
2019-02-22T12:21:17.324Z,97.08
2019-02-22T12:22:17.816Z,97.07
2019-02-22T12:23:18.269Z,97.09
2019-02-22T12:24:18.741Z,97.09
2019-02-22T12:25:19.212Z,97.09
2019-02-22T12:26:19.683Z,97.09
2019-02-22T12:27:20.157Z,97.09
2019-02-22T12:28:20.631Z,97.09
2019-02-22T12:29:21.105Z,97.06
2019-02-22T12:30:21.726Z,97.09
2019-02-22T12:31:22.046Z,97.09
2019-02-22T12:32:22.518Z,97.09
2019-02-22T12:33:22.989Z,97.09
2019-02-22T12:34:23.461Z,97.09
2019-02-22T12:35:23.936Z,97.07
2019-02-22T12:36:24.405Z,97.10
2019-02-22T12:37:24.878Z,97.09
2019-02-22T12:38:25.351Z,97.10
2019-02-22T12:39:25.823Z,97.10
2019-02-22T12:40:26.398Z,97.10
2019-02-22T12:41:26.766Z,97.10
2019-02-22T12:42:27.578Z,97.10
2019-02-22T12:43:27.709Z,97.10
2019-02-22T12:44:28.183Z,97.10
2019-02-22T12:45:28.653Z,97.10
2019-02-22T12:46:29.467Z,97.11
2019-02-22T12:47:29.598Z,97.09
2019-02-22T12:48:30.068Z,97.11
2019-02-22T12:49:30.881Z,97.11
2019-02-22T12:50:31.064Z,97.11
2019-02-22T12:51:31.487Z,97.11
2019-02-22T12:52:31.964Z,97.11
2019-02-22T12:53:32.429Z,97.11
2019-02-22T12:54:33.246Z,97.12
2019-02-22T12:55:33.426Z,97.11
2019-02-22T12:56:58.802Z,97.12
2019-02-22T12:57:34.316Z,97.11
2019-02-22T12:58:34.793Z,97.11
2019-02-22T12:59:35.265Z,97.12
2019-02-22T13:00:35.936Z,97.12
2019-02-22T13:01:36.207Z,97.12
2019-02-22T13:02:36.682Z,97.12
2019-02-22T13:03:37.153Z,97.12
2019-02-22T13:04:37.625Z,97.13
2019-02-22T13:05:38.095Z,97.12
2019-02-22T13:06:38.644Z,97.12
2019-02-22T13:07:39.243Z,97.12
2019-02-22T13:08:39.513Z,97.12
2019-02-22T13:09:39.983Z,97.12
2019-02-22T13:10:40.507Z,97.16
2019-02-22T13:11:40.928Z,97.13
2019-02-22T13:12:41.741Z,97.12
2019-02-22T13:13:41.873Z,97.13
2019-02-22T13:14:42.344Z,97.13
2019-02-22T13:15:42.818Z,97.13
2019-02-22T13:16:43.288Z,97.13
2019-02-22T13:17:43.763Z,97.13
2019-02-22T13:18:44.233Z,97.13
2019-02-22T13:19:44.707Z,97.13
2019-02-22T13:20:45.177Z,97.13
2019-02-22T13:21:45.648Z,97.13
2019-02-22T13:22:46.121Z,97.13
2019-02-22T13:23:46.595Z,97.13
2019-02-22T13:24:47.106Z,97.16
2019-02-22T13:25:47.549Z,97.13
2019-02-22T13:26:48.020Z,97.14
2019-02-22T13:27:48.482Z,97.14
2019-02-22T13:28:48.954Z,97.14
2019-02-22T13:29:49.767Z,97.14
2019-02-22T13:30:49.951Z,97.16
2019-02-22T13:31:50.372Z,97.14
2019-02-22T13:32:51.183Z,97.14
2019-02-22T13:33:51.314Z,97.14